createdAt,value
2023-03-19T00:02:16.603Z,99.90
2023-03-19T00:04:45.697Z,99.90
2023-03-19T00:07:13.862Z,99.90
2023-03-19T00:09:41.529Z,99.90
2023-03-19T00:12:10.176Z,99.90
2023-03-19T00:14:37.681Z,99.90
2023-03-19T00:17:05.086Z,99.90
2023-03-19T00:19:32.409Z,99.90
2023-03-19T00:21:59.740Z,99.90
2023-03-19T00:24:27.110Z,99.90
2023-03-19T00:26:54.614Z,99.90
2023-03-19T00:29:23.107Z,99.90
2023-03-19T00:31:50.583Z,99.90
2023-03-19T00:34:18.966Z,99.90
2023-03-19T00:36:46.968Z,99.90
2023-03-19T00:39:14.352Z,99.90
2023-03-19T00:41:41.905Z,99.90
2023-03-19T00:44:09.237Z,99.90
2023-03-19T00:46:36.782Z,99.90
2023-03-19T00:49:05.193Z,99.90
2023-03-19T00:51:32.697Z,99.90
2023-03-19T00:54:00.034Z,99.90
2023-03-19T00:56:27.485Z,99.90
2023-03-19T00:58:56.951Z,99.90
2023-03-19T01:01:25.198Z,99.90
2023-03-19T01:03:52.762Z,99.90
2023-03-19T01:06:20.523Z,99.90
2023-03-19T01:08:48.359Z,99.90
2023-03-19T01:11:17.187Z,99.90
2023-03-19T01:13:44.529Z,99.90
2023-03-19T01:16:11.887Z,99.90
2023-03-19T01:18:39.264Z,99.90
2023-03-19T01:21:08.263Z,99.90
2023-03-19T01:23:40.124Z,99.90
2023-03-19T01:26:08.355Z,99.90
2023-03-19T01:28:36.580Z,99.90
2023-03-19T01:31:07.866Z,99.90
2023-03-19T01:33:47.704Z,99.90
2023-03-19T01:36:26.688Z,99.90
2023-03-19T01:39:01.649Z,99.90
2023-03-19T01:41:29.031Z,99.90
2023-03-19T01:44:03.331Z,99.90
2023-03-19T01:46:49.165Z,99.90
2023-03-19T01:49:36.745Z,99.90
2023-03-19T01:52:18.442Z,99.90
2023-03-19T01:55:05.738Z,99.90
2023-03-19T01:57:49.009Z,99.90
2023-03-19T02:00:35.523Z,99.90
2023-03-19T02:03:03.112Z,99.90
2023-03-19T02:05:36.703Z,99.90
2023-03-19T02:08:07.588Z,99.90
2023-03-19T02:10:35.215Z,99.90
2023-03-19T02:13:06.278Z,99.90
2023-03-19T02:15:34.064Z,99.90
2023-03-19T02:18:01.517Z,99.90
2023-03-19T02:20:33.129Z,99.90
2023-03-19T02:23:23.368Z,99.90
2023-03-19T02:26:01.618Z,99.90
2023-03-19T02:28:29.242Z,99.90
2023-03-19T02:30:56.828Z,99.90
2023-03-19T02:33:24.487Z,99.90
2023-03-19T02:35:52.347Z,99.90
2023-03-19T02:38:22.396Z,99.90
2023-03-19T02:41:05.716Z,99.90
2023-03-19T02:43:34.406Z,99.90
2023-03-19T02:46:02.596Z,99.90
2023-03-19T02:48:30.103Z,99.90
2023-03-19T02:50:57.417Z,99.90
2023-03-19T02:53:25.684Z,99.90
2023-03-19T02:55:53.056Z,99.90
2023-03-19T02:58:20.934Z,99.90
2023-03-19T03:00:48.371Z,99.90
2023-03-19T03:03:16.026Z,99.90
2023-03-19T03:05:43.450Z,99.90
2023-03-19T03:08:10.817Z,99.90
2023-03-19T03:10:38.153Z,99.90
2023-03-19T03:13:05.673Z,99.90
2023-03-19T03:15:33.134Z,99.90
2023-03-19T03:18:00.890Z,99.90
2023-03-19T03:20:28.423Z,99.90
2023-03-19T03:22:55.749Z,99.90
2023-03-19T03:25:23.321Z,99.90
2023-03-19T03:27:51.013Z,99.90
2023-03-19T03:30:18.370Z,99.90
2023-03-19T03:32:45.830Z,99.90
2023-03-19T03:35:13.386Z,99.90
2023-03-19T03:37:40.796Z,99.90
2023-03-19T03:40:11.084Z,99.90
2023-03-19T03:42:38.428Z,99.90
2023-03-19T03:45:10.630Z,99.90
2023-03-19T03:47:38.030Z,99.90
2023-03-19T03:50:05.828Z,99.90
2023-03-19T03:52:34.223Z,99.90
2023-03-19T03:55:01.643Z,99.90
2023-03-19T03:57:29.112Z,99.90
2023-03-19T03:59:57.060Z,99.90
2023-03-19T04:02:25.218Z,99.90
2023-03-19T04:04:52.732Z,99.90
2023-03-19T04:07:20.644Z,99.90
2023-03-19T04:09:54.092Z,99.90
2023-03-19T04:12:21.836Z,99.90
2023-03-19T04:14:49.167Z,99.90
2023-03-19T04:17:16.934Z,99.90
2023-03-19T04:19:44.333Z,99.90
2023-03-19T04:22:11.692Z,99.90
2023-03-19T04:24:39.245Z,99.90
2023-03-19T04:27:07.424Z,99.90
2023-03-19T04:29:35.992Z,99.90
2023-03-19T04:32:04.407Z,99.90
2023-03-19T04:34:31.925Z,99.90
2023-03-19T04:36:59.327Z,99.90
2023-03-19T04:39:27.146Z,99.90
2023-03-19T04:41:54.462Z,99.90
2023-03-19T04:44:32.124Z,99.90
2023-03-19T04:47:01.828Z,99.90
2023-03-19T04:49:33.659Z,99.90
2023-03-19T04:52:01.643Z,99.90
2023-03-19T04:54:29.114Z,99.90
2023-03-19T04:56:57.296Z,99.90
2023-03-19T04:59:28.075Z,99.90
2023-03-19T05:01:55.662Z,99.90
2023-03-19T05:04:24.989Z,99.90
2023-03-19T05:06:55.407Z,99.90
2023-03-19T05:09:22.722Z,99.90
2023-03-19T05:11:51.645Z,99.90
2023-03-19T05:14:21.438Z,99.90
2023-03-19T05:17:11.245Z,99.90
2023-03-19T05:20:05.346Z,99.90
2023-03-19T05:22:34.846Z,99.90
2023-03-19T05:25:02.591Z,99.90
2023-03-19T05:27:31.194Z,99.90
2023-03-19T05:30:04.464Z,99.90
2023-03-19T05:33:06.860Z,99.90
2023-03-19T05:35:37.355Z,99.90
2023-03-19T05:38:11.144Z,99.90
2023-03-19T05:40:41.997Z,99.90
2023-03-19T05:43:29.541Z,99.90
2023-03-19T05:45:57.998Z,99.90
2023-03-19T05:48:29.557Z,99.90
2023-03-19T05:50:57.025Z,99.90
2023-03-19T05:53:25.400Z,99.90
2023-03-19T05:56:15.923Z,99.90
2023-03-19T05:59:20.485Z,99.90
2023-03-19T06:01:59.005Z,99.90
2023-03-19T06:04:27.245Z,99.90
2023-03-19T06:06:54.761Z,99.90
2023-03-19T06:09:22.360Z,99.90
2023-03-19T06:11:55.199Z,99.90
2023-03-19T06:14:54.800Z,99.90
2023-03-19T06:17:40.398Z,99.90
2023-03-19T06:20:11.352Z,99.90
2023-03-19T06:22:39.093Z,99.90
2023-03-19T06:25:06.744Z,99.90
2023-03-19T06:27:37.297Z,99.90
2023-03-19T06:30:18.374Z,99.90
2023-03-19T06:32:46.051Z,99.90
2023-03-19T06:35:14.439Z,99.90
2023-03-19T06:37:45.564Z,99.90
2023-03-19T06:40:12.993Z,99.90
2023-03-19T06:42:40.500Z,99.90
2023-03-19T06:45:08.743Z,99.90
2023-03-19T06:47:36.159Z,99.90
2023-03-19T06:50:04.455Z,99.90
2023-03-19T06:52:31.769Z,99.90
2023-03-19T06:54:59.282Z,99.90
2023-03-19T06:57:27.015Z,99.90
2023-03-19T06:59:54.760Z,99.90
2023-03-19T07:02:23.165Z,99.90
2023-03-19T07:04:50.852Z,99.90
2023-03-19T07:07:18.526Z,99.90
2023-03-19T07:09:45.874Z,99.90
2023-03-19T07:12:13.373Z,99.90
2023-03-19T07:14:40.782Z,99.90
2023-03-19T07:17:10.328Z,99.90
2023-03-19T07:19:37.767Z,99.90
2023-03-19T07:22:05.796Z,99.90
2023-03-19T07:24:33.081Z,99.90
2023-03-19T07:27:00.409Z,99.90
2023-03-19T07:29:27.721Z,99.90
2023-03-19T07:31:55.057Z,99.90
2023-03-19T07:34:23.166Z,99.90
2023-03-19T07:36:51.247Z,99.90
2023-03-19T07:39:18.975Z,99.90
2023-03-19T07:41:48.582Z,99.90
2023-03-19T07:44:16.583Z,99.90
2023-03-19T07:46:43.953Z,99.90
2023-03-19T07:49:11.288Z,99.90
2023-03-19T07:51:38.964Z,99.90
2023-03-19T07:54:06.834Z,99.90
2023-03-19T07:56:34.186Z,99.90
2023-03-19T07:59:01.705Z,99.90
2023-03-19T08:01:29.033Z,99.90
2023-03-19T08:03:56.421Z,99.90
2023-03-19T08:06:23.741Z,99.90
2023-03-19T08:08:51.424Z,99.90
2023-03-19T08:11:18.816Z,99.90
2023-03-19T08:13:46.176Z,99.90
2023-03-19T08:16:13.579Z,99.90
2023-03-19T08:18:41.001Z,99.90
2023-03-19T08:21:08.733Z,99.90
2023-03-19T08:23:36.154Z,99.90
2023-03-19T08:26:03.565Z,99.90
2023-03-19T08:28:31.090Z,99.90
2023-03-19T08:30:58.543Z,99.90
2023-03-19T08:33:25.894Z,99.90
2023-03-19T08:35:53.547Z,99.90
2023-03-19T08:38:21.108Z,99.90
2023-03-19T08:40:49.124Z,99.90
2023-03-19T08:43:16.417Z,99.90
2023-03-19T08:45:43.790Z,99.90
2023-03-19T08:48:11.063Z,99.90
2023-03-19T08:50:38.391Z,99.90
2023-03-19T08:53:05.752Z,99.90
2023-03-19T08:55:33.049Z,99.90
2023-03-19T08:58:00.639Z,99.90
2023-03-19T09:00:27.960Z,99.90
2023-03-19T09:02:55.443Z,99.90
2023-03-19T09:05:24.221Z,99.90
2023-03-19T09:07:52.907Z,99.90
2023-03-19T09:10:20.291Z,99.90
2023-03-19T09:12:48.640Z,99.90
2023-03-19T09:15:16.073Z,99.90
2023-03-19T09:17:43.344Z,99.90
2023-03-19T09:20:11.012Z,99.90
2023-03-19T09:22:38.331Z,99.90
2023-03-19T09:25:06.463Z,99.90
2023-03-19T09:27:33.772Z,99.90
2023-03-19T09:30:01.430Z,99.90
2023-03-19T09:32:28.717Z,99.90
2023-03-19T09:34:56.063Z,99.90
2023-03-19T09:37:23.629Z,99.90
2023-03-19T09:39:51.807Z,98.80
2023-03-19T09:42:41.724Z,98.50
2023-03-19T09:45:14.160Z,98.40
2023-03-19T09:47:43.450Z,98.80
2023-03-19T09:50:18.701Z,99.40
2023-03-19T09:52:51.273Z,99.40
2023-03-19T09:55:25.010Z,99.90
2023-03-19T09:57:53.445Z,99.90
2023-03-19T10:00:23.294Z,99.90
2023-03-19T10:02:54.920Z,99.90
2023-03-19T10:05:37.347Z,99.90
2023-03-19T10:08:24.903Z,99.90
2023-03-19T10:11:15.492Z,99.90
2023-03-19T10:14:01.730Z,99.90
2023-03-19T10:16:29.415Z,99.90
2023-03-19T10:19:02.866Z,99.90
2023-03-19T10:21:45.044Z,99.90
2023-03-19T10:24:20.628Z,99.90
2023-03-19T10:26:48.021Z,99.90
2023-03-19T10:29:18.055Z,99.90
2023-03-19T10:32:05.005Z,99.90
2023-03-19T10:34:37.638Z,99.90
2023-03-19T10:37:15.125Z,99.90
2023-03-19T10:39:43.769Z,99.90
2023-03-19T10:42:21.921Z,99.30
2023-03-19T10:44:58.961Z,99.90
2023-03-19T10:47:26.723Z,99.90
2023-03-19T10:49:55.861Z,99.90
2023-03-19T10:52:27.544Z,99.90
2023-03-19T10:55:02.652Z,99.90
2023-03-19T10:57:31.939Z,99.90
2023-03-19T11:00:04.936Z,99.90
2023-03-19T11:02:32.495Z,99.90
2023-03-19T11:05:23.113Z,99.90
2023-03-19T11:08:01.151Z,99.90
2023-03-19T11:10:30.220Z,99.90
2023-03-19T11:13:16.060Z,99.90
2023-03-19T11:15:43.423Z,99.90
2023-03-19T11:18:22.560Z,99.90
2023-03-19T11:21:02.119Z,99.90
2023-03-19T11:23:30.613Z,99.90
2023-03-19T11:26:00.095Z,99.90
2023-03-19T11:28:32.766Z,99.90
2023-03-19T11:31:29.989Z,99.90
2023-03-19T11:34:18.385Z,99.90
2023-03-19T11:37:16.968Z,99.90
2023-03-19T11:40:11.939Z,99.90
2023-03-19T11:42:54.312Z,99.90
2023-03-19T11:45:32.121Z,99.80
2023-03-19T11:48:21.094Z,99.70
2023-03-19T11:51:01.357Z,99.40
2023-03-19T11:54:09.382Z,99.20
2023-03-19T11:56:48.717Z,99.00
2023-03-19T11:59:46.295Z,99.00
2023-03-19T12:02:35.670Z,98.90
2023-03-19T12:05:09.497Z,98.90
2023-03-19T12:08:14.483Z,98.50
2023-03-19T12:11:08.256Z,98.40
2023-03-19T12:13:45.563Z,98.00
2023-03-19T12:16:21.327Z,97.80
2023-03-19T12:18:57.769Z,97.70
2023-03-19T12:21:31.049Z,97.50
2023-03-19T12:24:04.566Z,97.80
2023-03-19T12:26:42.778Z,97.70
2023-03-19T12:29:10.045Z,97.00
2023-03-19T12:31:41.509Z,97.10
2023-03-19T12:34:31.547Z,96.80
2023-03-19T12:37:17.355Z,96.40
2023-03-19T12:40:27.322Z,96.00
2023-03-19T12:42:59.087Z,95.70
2023-03-19T12:45:28.405Z,95.90
2023-03-19T12:48:02.648Z,95.50
2023-03-19T12:50:30.449Z,95.60
2023-03-19T12:52:58.723Z,94.60
2023-03-19T12:55:44.921Z,93.70
2023-03-19T12:58:18.386Z,93.30
2023-03-19T13:01:12.458Z,93.60
2023-03-19T13:03:55.348Z,93.50
2023-03-19T13:06:30.961Z,93.80
2023-03-19T13:09:24.582Z,93.50
2023-03-19T13:11:55.465Z,93.20
2023-03-19T13:14:26.652Z,93.20
2023-03-19T13:17:06.214Z,92.90
2023-03-19T13:19:54.230Z,92.10
2023-03-19T13:22:30.241Z,92.00
2023-03-19T13:24:57.823Z,91.90
2023-03-19T13:27:27.609Z,91.70
2023-03-19T13:30:11.474Z,91.60
2023-03-19T13:32:49.462Z,91.20
2023-03-19T13:35:34.143Z,91.50
2023-03-19T13:38:19.433Z,91.10
2023-03-19T13:40:53.638Z,91.20
2023-03-19T13:43:29.780Z,91.20
2023-03-19T13:46:23.169Z,91.30
2023-03-19T13:48:53.687Z,91.50
2023-03-19T13:51:26.734Z,91.60
2023-03-19T13:54:12.886Z,91.70
2023-03-19T13:57:00.971Z,91.50
2023-03-19T13:59:30.124Z,91.60
2023-03-19T14:01:57.745Z,91.50
2023-03-19T14:04:31.717Z,91.60
2023-03-19T14:07:17.790Z,91.20
2023-03-19T14:10:09.447Z,91.20
2023-03-19T14:12:37.996Z,90.70
2023-03-19T14:15:09.266Z,90.70
2023-03-19T14:18:01.569Z,90.70
2023-03-19T14:20:40.595Z,91.10
2023-03-19T14:23:08.952Z,90.90
2023-03-19T14:25:54.801Z,90.80
2023-03-19T14:28:57.453Z,90.30
2023-03-19T14:31:32.700Z,89.60
2023-03-19T14:34:14.762Z,88.80
2023-03-19T14:36:44.560Z,88.70
2023-03-19T14:39:21.726Z,88.50
2023-03-19T14:41:51.619Z,88.30
2023-03-19T14:44:31.229Z,88.30
2023-03-19T14:47:24.522Z,87.50
2023-03-19T14:50:10.498Z,87.90
2023-03-19T14:52:45.232Z,87.70
2023-03-19T14:55:16.119Z,88.40
2023-03-19T14:57:43.733Z,87.30
2023-03-19T15:00:17.333Z,86.60
2023-03-19T15:02:47.479Z,86.20
2023-03-19T15:05:17.711Z,85.60
2023-03-19T15:07:46.510Z,84.80
2023-03-19T15:10:19.303Z,85.30
2023-03-19T15:13:17.534Z,84.70
2023-03-19T15:16:09.244Z,84.10
2023-03-19T15:18:37.028Z,83.50
2023-03-19T15:21:04.910Z,82.10
2023-03-19T15:23:32.395Z,80.80
2023-03-19T15:26:01.803Z,80.50
2023-03-19T15:28:38.430Z,80.60
2023-03-19T15:31:26.206Z,80.90
2023-03-19T15:33:53.974Z,81.50
2023-03-19T15:36:39.598Z,82.60
2023-03-19T15:39:09.529Z,82.90
2023-03-19T15:41:40.375Z,83.30
2023-03-19T15:44:10.560Z,82.40
2023-03-19T15:46:38.958Z,82.50
2023-03-19T15:49:10.567Z,82.90
2023-03-19T15:51:38.068Z,82.10
2023-03-19T15:54:05.652Z,82.30
2023-03-19T15:56:32.993Z,81.50
2023-03-19T15:59:00.384Z,82.80
2023-03-19T16:01:27.968Z,82.60
2023-03-19T16:03:58.370Z,82.40
2023-03-19T16:06:30.813Z,82.90
2023-03-19T16:09:27.162Z,83.90
2023-03-19T16:11:55.126Z,83.60
2023-03-19T16:14:24.296Z,84.00
2023-03-19T16:16:52.592Z,84.30
2023-03-19T16:19:33.442Z,84.20
2023-03-19T16:22:01.047Z,84.70
2023-03-19T16:24:34.250Z,84.50
2023-03-19T16:27:07.035Z,84.20
2023-03-19T16:29:43.357Z,84.40
2023-03-19T16:32:20.968Z,84.70
2023-03-19T16:34:52.952Z,84.90
2023-03-19T16:37:40.819Z,85.50
2023-03-19T16:40:15.510Z,85.70
2023-03-19T16:42:47.070Z,86.00
2023-03-19T16:45:28.058Z,86.50
2023-03-19T16:47:57.134Z,87.00
2023-03-19T16:50:31.697Z,87.20
2023-03-19T16:52:59.811Z,87.40
2023-03-19T16:55:28.819Z,87.90
2023-03-19T16:57:58.036Z,88.10
2023-03-19T17:00:25.833Z,88.00
2023-03-19T17:02:55.781Z,88.70
2023-03-19T17:05:23.492Z,89.90
2023-03-19T17:07:50.958Z,89.10
2023-03-19T17:10:19.770Z,89.70
2023-03-19T17:12:49.175Z,90.30
2023-03-19T17:15:28.603Z,90.20
2023-03-19T17:17:56.013Z,90.10
2023-03-19T17:20:50.486Z,90.40
2023-03-19T17:23:18.237Z,90.50
2023-03-19T17:25:45.784Z,90.60
2023-03-19T17:28:13.102Z,90.80
2023-03-19T17:30:40.544Z,91.20
2023-03-19T17:33:11.194Z,91.50
2023-03-19T17:35:38.637Z,91.80
2023-03-19T17:38:06.058Z,92.10
2023-03-19T17:40:34.435Z,92.30
2023-03-19T17:43:02.053Z,92.40
2023-03-19T17:45:30.015Z,92.80
2023-03-19T17:47:57.660Z,92.90
2023-03-19T17:50:26.691Z,93.10
2023-03-19T17:52:54.094Z,93.50
2023-03-19T17:55:25.953Z,93.60
2023-03-19T17:57:53.560Z,93.80
2023-03-19T18:00:22.521Z,93.80
2023-03-19T18:02:51.295Z,93.90
2023-03-19T18:05:25.162Z,94.20
2023-03-19T18:07:55.764Z,94.30
2023-03-19T18:10:26.684Z,94.30
2023-03-19T18:12:54.772Z,94.40
2023-03-19T18:15:22.447Z,94.50
2023-03-19T18:17:57.019Z,94.50
2023-03-19T18:20:34.755Z,94.70
2023-03-19T18:23:02.570Z,94.90
2023-03-19T18:25:32.211Z,95.20
2023-03-19T18:27:59.986Z,95.30
2023-03-19T18:30:29.285Z,95.50
2023-03-19T18:32:58.401Z,95.70
2023-03-19T18:35:33.413Z,96.10
2023-03-19T18:38:00.854Z,96.30
2023-03-19T18:40:30.567Z,96.60
2023-03-19T18:42:57.939Z,96.30
2023-03-19T18:45:27.782Z,96.60
2023-03-19T18:47:56.941Z,96.80
2023-03-19T18:50:26.012Z,97.20
2023-03-19T18:52:53.897Z,97.40
2023-03-19T18:55:21.440Z,97.20
2023-03-19T18:57:54.242Z,97.10
2023-03-19T19:00:26.782Z,97.50
2023-03-19T19:02:54.628Z,97.70
2023-03-19T19:05:23.917Z,98.00
2023-03-19T19:07:51.623Z,98.00
2023-03-19T19:10:19.167Z,98.10
2023-03-19T19:12:47.619Z,98.20
2023-03-19T19:15:19.689Z,98.10
2023-03-19T19:17:47.959Z,98.30
2023-03-19T19:20:20.317Z,98.30
2023-03-19T19:22:47.845Z,98.40
2023-03-19T19:25:16.556Z,98.50
2023-03-19T19:27:44.226Z,98.60
2023-03-19T19:30:18.832Z,98.60
2023-03-19T19:32:46.687Z,98.70
2023-03-19T19:35:23.043Z,98.70
2023-03-19T19:37:50.890Z,99.00
2023-03-19T19:40:22.826Z,99.10
2023-03-19T19:42:52.310Z,99.30
2023-03-19T19:45:25.549Z,99.50
2023-03-19T19:47:53.059Z,99.70
2023-03-19T19:50:22.198Z,99.50
2023-03-19T19:52:49.775Z,98.80
2023-03-19T19:55:17.267Z,98.70
2023-03-19T19:57:44.911Z,99.30
2023-03-19T20:00:22.498Z,99.00
2023-03-19T20:02:50.348Z,99.30
2023-03-19T20:05:21.733Z,99.50
2023-03-19T20:07:50.386Z,99.50
2023-03-19T20:10:18.574Z,99.50
2023-03-19T20:12:47.509Z,99.60
2023-03-19T20:15:28.771Z,99.70
2023-03-19T20:17:56.439Z,99.70
2023-03-19T20:20:25.772Z,99.90
2023-03-19T20:22:53.991Z,99.90
2023-03-19T20:25:23.119Z,99.90
2023-03-19T20:27:51.972Z,99.90
2023-03-19T20:30:23.455Z,99.90
2023-03-19T20:32:51.097Z,99.90
2023-03-19T20:35:20.913Z,99.90
2023-03-19T20:37:48.505Z,99.90
2023-03-19T20:40:16.071Z,99.90
2023-03-19T20:42:45.258Z,99.90
2023-03-19T20:45:18.126Z,99.90
2023-03-19T20:47:45.679Z,99.90
2023-03-19T20:50:17.722Z,99.90
2023-03-19T20:52:46.200Z,99.90
2023-03-19T20:55:16.715Z,99.90
2023-03-19T20:57:45.537Z,99.90
2023-03-19T21:00:23.582Z,99.90
2023-03-19T21:02:51.689Z,99.90
2023-03-19T21:05:19.309Z,99.90
2023-03-19T21:07:51.017Z,99.90
2023-03-19T21:10:34.436Z,99.90
2023-03-19T21:13:01.934Z,99.90
2023-03-19T21:15:29.487Z,99.90
2023-03-19T21:17:57.381Z,99.90
2023-03-19T21:20:28.910Z,99.90
2023-03-19T21:23:17.174Z,99.90
2023-03-19T21:25:45.014Z,99.90
2023-03-19T21:28:34.578Z,99.90
2023-03-19T21:31:02.347Z,99.90
2023-03-19T21:33:31.614Z,99.90
2023-03-19T21:35:59.596Z,99.90
2023-03-19T21:38:27.317Z,99.90
2023-03-19T21:40:57.068Z,99.90
2023-03-19T21:43:29.886Z,99.90
2023-03-19T21:45:57.635Z,99.90
2023-03-19T21:48:26.847Z,99.90
2023-03-19T21:50:54.352Z,99.90
2023-03-19T21:53:21.709Z,99.90
2023-03-19T21:55:50.597Z,99.90
2023-03-19T21:58:20.310Z,99.90
2023-03-19T22:00:47.921Z,99.90
2023-03-19T22:03:18.421Z,99.90
2023-03-19T22:05:46.281Z,99.90
2023-03-19T22:08:16.086Z,99.90
2023-03-19T22:10:44.608Z,99.90
2023-03-19T22:13:38.268Z,99.90
2023-03-19T22:16:06.833Z,99.90
2023-03-19T22:18:34.164Z,99.90
2023-03-19T22:21:01.486Z,99.90
2023-03-19T22:23:28.835Z,99.90
2023-03-19T22:25:56.190Z,99.90
2023-03-19T22:28:30.581Z,99.90
2023-03-19T22:30:57.863Z,99.90
2023-03-19T22:33:25.950Z,99.90
2023-03-19T22:35:53.452Z,99.90
2023-03-19T22:38:21.725Z,99.90
2023-03-19T22:40:52.805Z,99.90
2023-03-19T22:43:35.568Z,99.90
2023-03-19T22:46:10.870Z,99.90
2023-03-19T22:48:38.632Z,99.90
2023-03-19T22:51:06.517Z,99.90
2023-03-19T22:53:35.293Z,99.90
2023-03-19T22:56:02.976Z,99.90
2023-03-19T22:58:30.323Z,99.90
2023-03-19T23:00:57.957Z,99.90
2023-03-19T23:03:30.673Z,99.90
2023-03-19T23:06:00.211Z,99.90
2023-03-19T23:08:27.734Z,99.90
2023-03-19T23:10:55.687Z,99.90
2023-03-19T23:13:23.175Z,99.90
2023-03-19T23:15:58.854Z,99.90
2023-03-19T23:18:31.036Z,99.90
2023-03-19T23:20:58.550Z,99.90
2023-03-19T23:23:26.080Z,99.90
2023-03-19T23:25:53.912Z,99.90
2023-03-19T23:28:26.476Z,99.90
2023-03-19T23:30:53.951Z,99.90
2023-03-19T23:33:21.391Z,99.90
2023-03-19T23:35:48.884Z,99.90
2023-03-19T23:38:17.380Z,99.90
2023-03-19T23:40:44.738Z,99.90
2023-03-19T23:43:18.678Z,99.90
2023-03-19T23:45:46.771Z,99.90
2023-03-19T23:48:22.798Z,99.90
2023-03-19T23:50:50.602Z,99.90
2023-03-19T23:53:22.330Z,99.90
2023-03-19T23:56:00.978Z,99.90
2023-03-19T23:58:39.817Z,99.90
